AirNav   Air Wisconsin Up To $57,000 Bonus
 
 493 users online  

VA99 Federhart-Ophelia Airport
Reedville, Virginia, USA

GOING TO REEDVILLE?


FAA INFORMATION EFFECTIVE 22 APRIL 2021

Location

FAA Identifier: VA99
Lat/Long: 37-54-21.4630N 076-17-25.8000W
37-54.357717N 076-17.430000W
37.9059619,-76.2905000
(estimated)
Elevation: 13 ft. / 4 m (estimated)
Variation: 10W (1985)
From city: 4 miles N of REEDVILLE, VA
Time zone: UTC -4 (UTC -5 during Standard Time)
Zip code: 22473

Airport Operations

Airport use: Private use. Permission required prior to landing
Activation date: 02/1972
Control tower: no
ARTCC: WASHINGTON CENTER
FSS: LEESBURG FLIGHT SERVICE STATION
Attendance: UNATNDD
Wind indicator: yes
Segmented circle: no

Airport Communications

WX AWOS-3 at TGI (15 nm E): 119.8 (757-891-2246)
WX AWOS-3 at W75 (20 nm S): 118.45 (804-758-8592)

Nearby radio navigation aids

VOR radial/distance  VOR name  Freq  Var
PXTr177/23.5PATUXENT VORTAC117.6010W
HCMr043/33.9HARCUM VORTAC108.8007W
CCVr347/36.3CAPE CHARLES VORTAC112.2010W

 
NDB name  Hdg/Dist  Freq  Var  ID
PATUXENT177/23.440010WNHK -. .... -.-

Airport Services

Airframe service: NONE
Powerplant service: NONE

Runway Information

Runway N/S

Dimensions: 2200 x 80 ft. / 671 x 24 m
Surface: turf, in good condition
RUNWAY N  RUNWAY S
Traffic pattern: leftleft
Obstructions: 60 ft. trees, 150 ft. from runway
AND PLINE
70 ft. trees, 450 ft. from runway

Airport Ownership and Management from official FAA records

Ownership: Privately-owned
Owner: OPHELIA AIRSTRIP, LLC
C/O TRISTRAM HYDE, 278 TOLSTOY LANE
SEVERNA PARK, MD 21146-0247
Phone 240-278-0829
Manager: TRISTRAM HYDE
278 TOLSTOY LANE, 375 AIRSTRIP LANE
SEVERNA PARK, MD 21146-0247
Phone 240-278-0829

Airport Operational Statistics

Aircraft based on the field: 8
Single engine airplanes: 8
    
Aircraft operations: 125/year *
100% local general aviation
* for 12-month period ending 31 December 2020

Additional Remarks

DESIGNATED VA99.
FOR CD CTC WASHINGTON ARTCC AT 703-771-3587.
VFR DAY USE ONLY

Instrument Procedures

There are no published instrument procedures at VA99.

Some nearby airports with instrument procedures:

KTGI - Tangier Island Airport (15 nm E)
W75 - Hummel Field Airport (20 nm S)
W41 - Crisfield-Somerset County Airport (23 nm E)
KNHK - Patuxent River Naval Air Station (Trapnell Field) (24 nm N)
2W6 - St Mary's County Regional Airport (27 nm NW)
 
Loc | Ops | Rwys | IFR | FBO | Links
Com | Nav | Svcs | Stats | Notes
Area around VA99 (Federhart-Ophelia Airport)
 
Road maps at: MapQuest Bing Google
 
Aerial photo
WARNING: Photo may not be current or correct
Aerial photo of VA99 (Federhart-Ophelia Airport)
Photo taken 27-Mar-2006

Do you have a better or more recent aerial photo of Federhart-Ophelia Airport that you would like to share? If so, please send us your photo.

 
Sectional chart

 
Airport distance calculator
Flying to Federhart-Ophelia Airport? Find the distance to fly.

From to VA99

Sunrise and sunset
Times for 14-May-2021
 Local
(UTC-4)
 Zulu
(UTC)
Morning civil twilight05:2709:27
Sunrise05:5709:57
Sunset20:0600:06
Evening civil twilight20:3600:36

Current date and time
Zulu (UTC)  14-May-2021 09:23:36
Local (UTC-4)  14-May-2021 05:23:36
 
METAR
KTGI 
15nm E 
140855Z AUTO 27007KT 10SM CLR 15/09 A3023 RMK AO1 T01480089
KNUI 
16nm NW 
140853Z AUTO 00000KT 10SM CLR 09/06 A3023 RMK AO2 SLP235 T00890061 55002
KW75 
20nm S 
140855Z AUTO 00000KT 10SM CLR 07/07 A3024 RMK AO1 T00650065
KNHK 
22nm N 
140852Z AUTO 27004KT 10SM CLR 11/06 A3023 RMK AO2 SLP236 T01110061 56002 $
K2W6 
27nm NW 
132015Z AUTO 03004KT 10SM CLR 18/M01 A3023 RMK AO1
KXSA 
29nm W 
140855Z AUTO 00000KT 10SM CLR 04/04 A3025 RMK AO2 T00400040
TAF
KNHK 
22nm N 
1407/1507 VRB06KT 9999 FEW080 QNH3017INS AUTOMATED SENSOR METWATCH 1407 TIL 1408 T11/1410Z T21/1419Z FN00205
NOTAMs
Click for the latest NOTAMs
NOTAMs are issued by the DoD/FAA and will open in a separate window not controlled by AirNav.

 

 
 

Would you like to see your business listed on this page?

 If your business provides an interesting product or service to pilots, flight crews, aircraft, or users of the Federhart-Ophelia Airport, you should consider listing it here.  To start the listing process, click on the button below
 
Add a business
 

Other Pages about Federhart-Ophelia Airport

Update a link
 
Copyright © AirNav, LLC. All rights reserved. Privacy Policy  Contact